sensor_id;sensor_type;location;lat;lon;timestamp;P1;durP1;ratioP1;P2;durP2;ratioP2
26536;SDS011;14204;51.262;5.488;2023-07-24T00:00:23;5.97;;;4.13;;
26536;SDS011;14204;51.262;5.488;2023-07-24T00:02:49;6.55;;;4.80;;
26536;SDS011;14204;51.262;5.488;2023-07-24T00:05:15;6.47;;;4.47;;
26536;SDS011;14204;51.262;5.488;2023-07-24T00:07:41;6.75;;;4.38;;
26536;SDS011;14204;51.262;5.488;2023-07-24T00:10:07;7.32;;;4.57;;
26536;SDS011;14204;51.262;5.488;2023-07-24T00:12:33;8.05;;;4.95;;
26536;SDS011;14204;51.262;5.488;2023-07-24T00:14:59;8.07;;;4.68;;
26536;SDS011;14204;51.262;5.488;2023-07-24T00:17:24;10.73;;;5.55;;
26536;SDS011;14204;51.262;5.488;2023-07-24T00:19:50;10.00;;;5.05;;
26536;SDS011;14204;51.262;5.488;2023-07-24T00:22:17;8.20;;;5.90;;
26536;SDS011;14204;51.262;5.488;2023-07-24T00:24:42;8.27;;;5.65;;
26536;SDS011;14204;51.262;5.488;2023-07-24T00:27:09;10.88;;;5.35;;
26536;SDS011;14204;51.262;5.488;2023-07-24T00:29:37;7.35;;;5.93;;
26536;SDS011;14204;51.262;5.488;2023-07-24T00:32:02;7.10;;;5.65;;
26536;SDS011;14204;51.262;5.488;2023-07-24T00:34:29;12.55;;;6.32;;
26536;SDS011;14204;51.262;5.488;2023-07-24T00:36:55;6.35;;;5.25;;
26536;SDS011;14204;51.262;5.488;2023-07-24T00:39:20;9.25;;;6.22;;
26536;SDS011;14204;51.262;5.488;2023-07-24T00:41:46;10.05;;;5.57;;
26536;SDS011;14204;51.262;5.488;2023-07-24T00:44:12;9.32;;;5.72;;
26536;SDS011;14204;51.262;5.488;2023-07-24T00:46:38;7.57;;;5.93;;
26536;SDS011;14204;51.262;5.488;2023-07-24T00:49:06;7.03;;;5.57;;
26536;SDS011;14204;51.262;5.488;2023-07-24T00:51:35;8.35;;;5.32;;
26536;SDS011;14204;51.262;5.488;2023-07-24T00:54:02;11.70;;;5.78;;
26536;SDS011;14204;51.262;5.488;2023-07-24T00:56:28;8.65;;;6.30;;
26536;SDS011;14204;51.262;5.488;2023-07-24T00:58:56;11.52;;;6.53;;
26536;SDS011;14204;51.262;5.488;2023-07-24T01:01:23;7.63;;;6.00;;
26536;SDS011;14204;51.262;5.488;2023-07-24T01:03:50;14.60;;;6.97;;
26536;SDS011;14204;51.262;5.488;2023-07-24T01:06:16;10.90;;;7.32;;
26536;SDS011;14204;51.262;5.488;2023-07-24T01:08:43;12.75;;;6.80;;
26536;SDS011;14204;51.262;5.488;2023-07-24T01:11:15;12.23;;;6.47;;
26536;SDS011;14204;51.262;5.488;2023-07-24T01:14:29;8.93;;;6.55;;
26536;SDS011;14204;51.262;5.488;2023-07-24T01:16:44;11.90;;;7.47;;
26536;SDS011;14204;51.262;5.488;2023-07-24T01:19:23;12.23;;;6.78;;
26536;SDS011;14204;51.262;5.488;2023-07-24T01:27:43;12.88;;;7.65;;
26536;SDS011;14204;51.262;5.488;2023-07-24T01:30:11;12.20;;;7.97;;
26536;SDS011;14204;51.262;5.488;2023-07-24T01:32:39;17.60;;;8.93;;
26536;SDS011;14204;51.262;5.488;2023-07-24T01:35:05;9.73;;;6.93;;
26536;SDS011;14204;51.262;5.488;2023-07-24T01:37:31;12.75;;;7.80;;
26536;SDS011;14204;51.262;5.488;2023-07-24T01:39:59;10.52;;;7.65;;
26536;SDS011;14204;51.262;5.488;2023-07-24T01:42:25;11.32;;;7.75;;
26536;SDS011;14204;51.262;5.488;2023-07-24T01:44:52;14.68;;;7.95;;
26536;SDS011;14204;51.262;5.488;2023-07-24T01:47:18;13.82;;;7.60;;
26536;SDS011;14204;51.262;5.488;2023-07-24T01:49:44;12.80;;;8.25;;
26536;SDS011;14204;51.262;5.488;2023-07-24T01:52:10;12.43;;;8.43;;
26536;SDS011;14204;51.262;5.488;2023-07-24T01:54:36;11.98;;;8.02;;
26536;SDS011;14204;51.262;5.488;2023-07-24T01:57:01;13.75;;;8.30;;
26536;SDS011;14204;51.262;5.488;2023-07-24T01:59:27;12.90;;;7.70;;
26536;SDS011;14204;51.262;5.488;2023-07-24T02:01:53;21.45;;;8.80;;
26536;SDS011;14204;51.262;5.488;2023-07-24T02:04:18;13.43;;;8.93;;
26536;SDS011;14204;51.262;5.488;2023-07-24T02:06:47;12.38;;;8.38;;
26536;SDS011;14204;51.262;5.488;2023-07-24T02:09:17;10.75;;;8.15;;
26536;SDS011;14204;51.262;5.488;2023-07-24T02:11:43;16.52;;;7.68;;
26536;SDS011;14204;51.262;5.488;2023-07-24T02:14:10;15.98;;;7.88;;
26536;SDS011;14204;51.262;5.488;2023-07-24T02:16:36;14.65;;;8.15;;
26536;SDS011;14204;51.262;5.488;2023-07-24T02:19:02;14.00;;;8.23;;
26536;SDS011;14204;51.262;5.488;2023-07-24T02:21:28;15.40;;;8.43;;
26536;SDS011;14204;51.262;5.488;2023-07-24T02:23:54;12.60;;;8.23;;
26536;SDS011;14204;51.262;5.488;2023-07-24T02:26:19;17.63;;;9.70;;
26536;SDS011;14204;51.262;5.488;2023-07-24T02:28:45;17.05;;;8.30;;
26536;SDS011;14204;51.262;5.488;2023-07-24T02:31:11;15.35;;;8.48;;
26536;SDS011;14204;51.262;5.488;2023-07-24T02:33:37;12.93;;;7.72;;
26536;SDS011;14204;51.262;5.488;2023-07-24T02:36:02;23.48;;;10.05;;
26536;SDS011;14204;51.262;5.488;2023-07-24T02:38:28;16.75;;;9.40;;
26536;SDS011;14204;51.262;5.488;2023-07-24T02:40:54;18.67;;;8.73;;
26536;SDS011;14204;51.262;5.488;2023-07-24T02:43:19;16.92;;;7.93;;
26536;SDS011;14204;51.262;5.488;2023-07-24T02:45:45;16.05;;;8.32;;
26536;SDS011;14204;51.262;5.488;2023-07-24T02:48:11;13.88;;;7.75;;
26536;SDS011;14204;51.262;5.488;2023-07-24T02:50:36;19.60;;;8.45;;
26536;SDS011;14204;51.262;5.488;2023-07-24T02:53:02;17.27;;;8.95;;
26536;SDS011;14204;51.262;5.488;2023-07-24T02:55:28;17.13;;;9.45;;
26536;SDS011;14204;51.262;5.488;2023-07-24T02:57:53;13.77;;;7.80;;
26536;SDS011;14204;51.262;5.488;2023-07-24T03:00:19;14.52;;;7.45;;
26536;SDS011;14204;51.262;5.488;2023-07-24T03:02:45;14.02;;;8.15;;
26536;SDS011;14204;51.262;5.488;2023-07-24T03:05:10;17.45;;;9.10;;
26536;SDS011;14204;51.262;5.488;2023-07-24T03:07:36;14.00;;;7.93;;
26536;SDS011;14204;51.262;5.488;2023-07-24T03:10:02;16.70;;;8.65;;
26536;SDS011;14204;51.262;5.488;2023-07-24T03:12:28;19.50;;;8.70;;
26536;SDS011;14204;51.262;5.488;2023-07-24T03:14:54;12.25;;;7.63;;
26536;SDS011;14204;51.262;5.488;2023-07-24T03:17:19;18.73;;;8.27;;
26536;SDS011;14204;51.262;5.488;2023-07-24T03:19:45;16.77;;;8.88;;
26536;SDS011;14204;51.262;5.488;2023-07-24T03:22:10;17.25;;;8.93;;
26536;SDS011;14204;51.262;5.488;2023-07-24T03:24:36;16.88;;;8.40;;
26536;SDS011;14204;51.262;5.488;2023-07-24T03:27:02;18.30;;;9.93;;
26536;SDS011;14204;51.262;5.488;2023-07-24T03:29:28;11.57;;;7.95;;
26536;SDS011;14204;51.262;5.488;2023-07-24T03:31:53;12.25;;;8.18;;
26536;SDS011;14204;51.262;5.488;2023-07-24T03:34:19;14.52;;;9.52;;
26536;SDS011;14204;51.262;5.488;2023-07-24T03:36:45;15.23;;;8.55;;
26536;SDS011;14204;51.262;5.488;2023-07-24T03:39:10;17.08;;;9.20;;
26536;SDS011;14204;51.262;5.488;2023-07-24T03:41:36;13.45;;;7.70;;
26536;SDS011;14204;51.262;5.488;2023-07-24T03:44:03;15.25;;;8.30;;
26536;SDS011;14204;51.262;5.488;2023-07-24T03:46:29;15.40;;;8.23;;
26536;SDS011;14204;51.262;5.488;2023-07-24T03:48:54;13.30;;;7.25;;
26536;SDS011;14204;51.262;5.488;2023-07-24T03:51:20;15.27;;;8.77;;
26536;SDS011;14204;51.262;5.488;2023-07-24T03:53:46;11.52;;;7.28;;
26536;SDS011;14204;51.262;5.488;2023-07-24T03:56:11;11.48;;;5.82;;
26536;SDS011;14204;51.262;5.488;2023-07-24T03:58:37;11.82;;;7.13;;
26536;SDS011;14204;51.262;5.488;2023-07-24T04:01:04;13.68;;;6.60;;
26536;SDS011;14204;51.262;5.488;2023-07-24T04:03:30;12.63;;;5.93;;
26536;SDS011;14204;51.262;5.488;2023-07-24T04:05:55;7.30;;;5.53;;
26536;SDS011;14204;51.262;5.488;2023-07-24T04:08:21;6.90;;;4.93;;
26536;SDS011;14204;51.262;5.488;2023-07-24T04:10:47;9.82;;;5.28;;
26536;SDS011;14204;51.262;5.488;2023-07-24T04:13:12;7.22;;;5.32;;
26536;SDS011;14204;51.262;5.488;2023-07-24T04:15:38;8.40;;;5.10;;
26536;SDS011;14204;51.262;5.488;2023-07-24T04:18:04;7.68;;;4.70;;
26536;SDS011;14204;51.262;5.488;2023-07-24T04:20:30;6.40;;;4.43;;
26536;SDS011;14204;51.262;5.488;2023-07-24T04:22:56;6.00;;;4.65;;
26536;SDS011;14204;51.262;5.488;2023-07-24T04:25:22;7.55;;;3.70;;
26536;SDS011;14204;51.262;5.488;2023-07-24T04:27:47;4.68;;;3.35;;
26536;SDS011;14204;51.262;5.488;2023-07-24T04:30:13;3.55;;;3.20;;
26536;SDS011;14204;51.262;5.488;2023-07-24T04:32:39;5.15;;;2.95;;
26536;SDS011;14204;51.262;5.488;2023-07-24T04:35:05;4.93;;;2.72;;
26536;SDS011;14204;51.262;5.488;2023-07-24T04:37:31;3.38;;;2.40;;
26536;SDS011;14204;51.262;5.488;2023-07-24T04:39:56;3.50;;;3.08;;
26536;SDS011;14204;51.262;5.488;2023-07-24T04:42:22;2.97;;;2.67;;
26536;SDS011;14204;51.262;5.488;2023-07-24T04:44:48;2.90;;;2.60;;
26536;SDS011;14204;51.262;5.488;2023-07-24T04:47:15;2.75;;;2.53;;
26536;SDS011;14204;51.262;5.488;2023-07-24T04:49:41;4.03;;;3.63;;
26536;SDS011;14204;51.262;5.488;2023-07-24T04:52:06;4.10;;;2.97;;
26536;SDS011;14204;51.262;5.488;2023-07-24T04:54:32;5.50;;;3.90;;
26536;SDS011;14204;51.262;5.488;2023-07-24T04:56:58;5.97;;;3.95;;
26536;SDS011;14204;51.262;5.488;2023-07-24T04:59:24;5.82;;;3.80;;
26536;SDS011;14204;51.262;5.488;2023-07-24T05:01:49;5.35;;;3.80;;
26536;SDS011;14204;51.262;5.488;2023-07-24T05:04:15;4.43;;;3.95;;
26536;SDS011;14204;51.262;5.488;2023-07-24T05:06:41;5.40;;;3.85;;
26536;SDS011;14204;51.262;5.488;2023-07-24T05:09:06;4.28;;;3.58;;
26536;SDS011;14204;51.262;5.488;2023-07-24T05:11:32;4.30;;;3.20;;
26536;SDS011;14204;51.262;5.488;2023-07-24T05:13:58;4.05;;;3.22;;
26536;SDS011;14204;51.262;5.488;2023-07-24T05:16:23;5.53;;;3.97;;
26536;SDS011;14204;51.262;5.488;2023-07-24T05:18:49;7.38;;;3.95;;
26536;SDS011;14204;51.262;5.488;2023-07-24T05:21:15;4.88;;;4.38;;
26536;SDS011;14204;51.262;5.488;2023-07-24T05:23:40;5.72;;;4.82;;
26536;SDS011;14204;51.262;5.488;2023-07-24T05:26:06;6.03;;;4.15;;
26536;SDS011;14204;51.262;5.488;2023-07-24T05:28:32;6.50;;;4.40;;
26536;SDS011;14204;51.262;5.488;2023-07-24T05:31:01;5.25;;;4.50;;
26536;SDS011;14204;51.262;5.488;2023-07-24T05:33:28;4.95;;;4.50;;
26536;SDS011;14204;51.262;5.488;2023-07-24T05:36:01;4.95;;;4.45;;
26536;SDS011;14204;51.262;5.488;2023-07-24T05:38:27;5.38;;;4.88;;
26536;SDS011;14204;51.262;5.488;2023-07-24T05:43:22;4.72;;;4.10;;
26536;SDS011;14204;51.262;5.488;2023-07-24T05:45:49;3.90;;;3.60;;
26536;SDS011;14204;51.262;5.488;2023-07-24T05:48:18;4.28;;;3.92;;
26536;SDS011;14204;51.262;5.488;2023-07-24T05:50:44;4.00;;;3.60;;
26536;SDS011;14204;51.262;5.488;2023-07-24T05:53:09;5.55;;;3.53;;
26536;SDS011;14204;51.262;5.488;2023-07-24T05:55:35;3.88;;;3.15;;
26536;SDS011;14204;51.262;5.488;2023-07-24T05:58:01;3.78;;;3.47;;
26536;SDS011;14204;51.262;5.488;2023-07-24T06:00:27;3.83;;;3.47;;
26536;SDS011;14204;51.262;5.488;2023-07-24T06:02:53;4.85;;;3.85;;
26536;SDS011;14204;51.262;5.488;2023-07-24T06:05:19;3.70;;;3.40;;
26536;SDS011;14204;51.262;5.488;2023-07-24T06:07:45;5.20;;;3.78;;
26536;SDS011;14204;51.262;5.488;2023-07-24T06:10:11;5.18;;;3.20;;
26536;SDS011;14204;51.262;5.488;2023-07-24T06:12:37;4.03;;;3.72;;
26536;SDS011;14204;51.262;5.488;2023-07-24T06:15:03;4.38;;;3.97;;
26536;SDS011;14204;51.262;5.488;2023-07-24T06:17:29;4.90;;;3.67;;
26536;SDS011;14204;51.262;5.488;2023-07-24T06:19:55;4.07;;;3.50;;
26536;SDS011;14204;51.262;5.488;2023-07-24T06:22:20;5.40;;;4.28;;
26536;SDS011;14204;51.262;5.488;2023-07-24T06:24:46;4.63;;;3.90;;
26536;SDS011;14204;51.262;5.488;2023-07-24T06:27:12;4.05;;;3.67;;
26536;SDS011;14204;51.262;5.488;2023-07-24T06:29:37;5.50;;;4.22;;
26536;SDS011;14204;51.262;5.488;2023-07-24T06:32:03;4.38;;;3.97;;
26536;SDS011;14204;51.262;5.488;2023-07-24T06:34:29;5.68;;;3.70;;
26536;SDS011;14204;51.262;5.488;2023-07-24T06:36:55;4.90;;;3.53;;
26536;SDS011;14204;51.262;5.488;2023-07-24T06:39:20;3.55;;;3.25;;
26536;SDS011;14204;51.262;5.488;2023-07-24T06:41:46;4.25;;;3.47;;
26536;SDS011;14204;51.262;5.488;2023-07-24T06:44:12;5.40;;;3.35;;
26536;SDS011;14204;51.262;5.488;2023-07-24T06:46:37;4.38;;;3.55;;
26536;SDS011;14204;51.262;5.488;2023-07-24T06:49:03;4.13;;;3.55;;
26536;SDS011;14204;51.262;5.488;2023-07-24T06:51:29;3.50;;;3.20;;
26536;SDS011;14204;51.262;5.488;2023-07-24T06:53:54;3.60;;;3.30;;
26536;SDS011;14204;51.262;5.488;2023-07-24T06:56:20;4.40;;;3.05;;
26536;SDS011;14204;51.262;5.488;2023-07-24T06:58:46;3.50;;;3.20;;
26536;SDS011;14204;51.262;5.488;2023-07-24T07:01:11;3.53;;;2.60;;
26536;SDS011;14204;51.262;5.488;2023-07-24T07:03:37;3.50;;;3.00;;
26536;SDS011;14204;51.262;5.488;2023-07-24T07:06:03;6.30;;;3.50;;
26536;SDS011;14204;51.262;5.488;2023-07-24T07:08:29;3.50;;;3.20;;
26536;SDS011;14204;51.262;5.488;2023-07-24T07:10:58;3.58;;;3.08;;
26536;SDS011;14204;51.262;5.488;2023-07-24T07:13:25;3.35;;;3.05;;
26536;SDS011;14204;51.262;5.488;2023-07-24T07:15:51;3.60;;;3.30;;
26536;SDS011;14204;51.262;5.488;2023-07-24T07:18:16;3.60;;;3.22;;
26536;SDS011;14204;51.262;5.488;2023-07-24T07:20:49;3.90;;;3.60;;
26536;SDS011;14204;51.262;5.488;2023-07-24T07:23:17;4.95;;;3.90;;
26536;SDS011;14204;51.262;5.488;2023-07-24T07:25:42;5.40;;;4.28;;
26536;SDS011;14204;51.262;5.488;2023-07-24T07:28:10;7.55;;;3.83;;
26536;SDS011;14204;51.262;5.488;2023-07-24T07:30:36;4.88;;;4.38;;
26536;SDS011;14204;51.262;5.488;2023-07-24T07:33:02;4.65;;;3.78;;
26536;SDS011;14204;51.262;5.488;2023-07-24T07:35:27;5.07;;;3.92;;
26536;SDS011;14204;51.262;5.488;2023-07-24T07:37:53;5.10;;;3.88;;
26536;SDS011;14204;51.262;5.488;2023-07-24T07:40:19;4.90;;;3.78;;
26536;SDS011;14204;51.262;5.488;2023-07-24T07:42:44;5.68;;;4.30;;
26536;SDS011;14204;51.262;5.488;2023-07-24T07:45:10;7.55;;;4.43;;
26536;SDS011;14204;51.262;5.488;2023-07-24T07:47:36;6.55;;;4.35;;
26536;SDS011;14204;51.262;5.488;2023-07-24T07:50:02;4.10;;;3.80;;
26536;SDS011;14204;51.262;5.488;2023-07-24T07:52:28;4.10;;;3.60;;
26536;SDS011;14204;51.262;5.488;2023-07-24T07:54:54;6.15;;;4.15;;
26536;SDS011;14204;51.262;5.488;2023-07-24T07:57:19;4.05;;;3.47;;
26536;SDS011;14204;51.262;5.488;2023-07-24T07:59:45;5.22;;;4.18;;
26536;SDS011;14204;51.262;5.488;2023-07-24T08:02:11;4.43;;;4.03;;
26536;SDS011;14204;51.262;5.488;2023-07-24T08:04:36;4.32;;;3.90;;
26536;SDS011;14204;51.262;5.488;2023-07-24T08:07:02;4.10;;;3.70;;
26536;SDS011;14204;51.262;5.488;2023-07-24T08:09:28;3.45;;;3.03;;
26536;SDS011;14204;51.262;5.488;2023-07-24T08:11:54;4.82;;;3.75;;
26536;SDS011;14204;51.262;5.488;2023-07-24T08:14:20;7.20;;;3.45;;
26536;SDS011;14204;51.262;5.488;2023-07-24T08:16:48;3.88;;;2.92;;
26536;SDS011;14204;51.262;5.488;2023-07-24T08:19:14;4.72;;;3.63;;
26536;SDS011;14204;51.262;5.488;2023-07-24T08:21:40;3.40;;;3.10;;
26536;SDS011;14204;51.262;5.488;2023-07-24T08:24:06;3.60;;;3.00;;
26536;SDS011;14204;51.262;5.488;2023-07-24T08:26:31;4.43;;;2.50;;
26536;SDS011;14204;51.262;5.488;2023-07-24T08:28:57;4.85;;;3.20;;
26536;SDS011;14204;51.262;5.488;2023-07-24T08:31:23;3.33;;;3.13;;
26536;SDS011;14204;51.262;5.488;2023-07-24T08:33:49;3.15;;;2.67;;
26536;SDS011;14204;51.262;5.488;2023-07-24T08:36:14;2.58;;;2.35;;
26536;SDS011;14204;51.262;5.488;2023-07-24T08:38:41;2.58;;;2.38;;
26536;SDS011;14204;51.262;5.488;2023-07-24T08:41:08;2.45;;;2.25;;
26536;SDS011;14204;51.262;5.488;2023-07-24T08:43:37;2.85;;;2.38;;
26536;SDS011;14204;51.262;5.488;2023-07-24T08:46:04;5.07;;;2.78;;
26536;SDS011;14204;51.262;5.488;2023-07-24T08:48:35;3.13;;;2.83;;
26536;SDS011;14204;51.262;5.488;2023-07-24T08:51:02;4.40;;;2.78;;
26536;SDS011;14204;51.262;5.488;2023-07-24T08:53:29;2.88;;;2.55;;
26536;SDS011;14204;51.262;5.488;2023-07-24T08:55:56;4.28;;;2.78;;
26536;SDS011;14204;51.262;5.488;2023-07-24T08:58:22;2.70;;;2.50;;
26536;SDS011;14204;51.262;5.488;2023-07-24T09:00:48;3.67;;;2.60;;
26536;SDS011;14204;51.262;5.488;2023-07-24T09:03:14;3.75;;;3.17;;
26536;SDS011;14204;51.262;5.488;2023-07-24T09:05:39;3.17;;;2.50;;
26536;SDS011;14204;51.262;5.488;2023-07-24T09:08:05;2.83;;;2.63;;
26536;SDS011;14204;51.262;5.488;2023-07-24T09:10:31;3.55;;;2.65;;
26536;SDS011;14204;51.262;5.488;2023-07-24T09:12:56;3.05;;;2.40;;
26536;SDS011;14204;51.262;5.488;2023-07-24T09:15:22;5.38;;;2.97;;
26536;SDS011;14204;51.262;5.488;2023-07-24T09:17:51;5.30;;;3.20;;
26536;SDS011;14204;51.262;5.488;2023-07-24T09:20:18;5.60;;;3.35;;
26536;SDS011;14204;51.262;5.488;2023-07-24T09:22:53;3.88;;;2.67;;
26536;SDS011;14204;51.262;5.488;2023-07-24T09:25:32;2.97;;;2.70;;
26536;SDS011;14204;51.262;5.488;2023-07-24T09:27:59;3.45;;;3.13;;
26536;SDS011;14204;51.262;5.488;2023-07-24T09:30:25;6.18;;;3.97;;
26536;SDS011;14204;51.262;5.488;2023-07-24T09:32:53;2.80;;;2.60;;
26536;SDS011;14204;51.262;5.488;2023-07-24T09:35:20;4.88;;;2.75;;
26536;SDS011;14204;51.262;5.488;2023-07-24T09:38:00;5.47;;;3.05;;
26536;SDS011;14204;51.262;5.488;2023-07-24T09:40:27;3.05;;;2.72;;
26536;SDS011;14204;51.262;5.488;2023-07-24T09:42:53;5.75;;;3.40;;
26536;SDS011;14204;51.262;5.488;2023-07-24T09:45:19;3.28;;;2.97;;
26536;SDS011;14204;51.262;5.488;2023-07-24T09:47:45;4.55;;;3.10;;
26536;SDS011;14204;51.262;5.488;2023-07-24T09:50:11;4.32;;;3.42;;
26536;SDS011;14204;51.262;5.488;2023-07-24T09:52:37;2.95;;;2.72;;
26536;SDS011;14204;51.262;5.488;2023-07-24T09:57:54;5.13;;;3.50;;
26536;SDS011;14204;51.262;5.488;2023-07-24T10:00:20;3.70;;;3.35;;
26536;SDS011;14204;51.262;5.488;2023-07-24T10:02:46;3.90;;;3.50;;
26536;SDS011;14204;51.262;5.488;2023-07-24T10:05:13;4.13;;;3.50;;
26536;SDS011;14204;51.262;5.488;2023-07-24T10:07:39;3.97;;;3.28;;
26536;SDS011;14204;51.262;5.488;2023-07-24T10:10:06;5.20;;;3.42;;
26536;SDS011;14204;51.262;5.488;2023-07-24T10:12:32;10.38;;;3.47;;
26536;SDS011;14204;51.262;5.488;2023-07-24T10:14:59;3.75;;;3.03;;
26536;SDS011;14204;51.262;5.488;2023-07-24T10:17:35;4.97;;;3.70;;
26536;SDS011;14204;51.262;5.488;2023-07-24T10:20:06;5.20;;;3.33;;
26536;SDS011;14204;51.262;5.488;2023-07-24T10:22:33;4.05;;;3.25;;
26536;SDS011;14204;51.262;5.488;2023-07-24T10:24:59;4.35;;;3.67;;
26536;SDS011;14204;51.262;5.488;2023-07-24T10:27:25;6.28;;;4.60;;
26536;SDS011;14204;51.262;5.488;2023-07-24T10:30:04;5.45;;;4.78;;
26536;SDS011;14204;51.262;5.488;2023-07-24T10:32:32;7.03;;;4.63;;
26536;SDS011;14204;51.262;5.488;2023-07-24T10:37:34;5.18;;;4.68;;
26536;SDS011;14204;51.262;5.488;2023-07-24T10:40:01;6.05;;;4.97;;
26536;SDS011;14204;51.262;5.488;2023-07-24T10:42:29;6.75;;;4.35;;
26536;SDS011;14204;51.262;5.488;2023-07-24T10:45:07;6.55;;;5.10;;
26536;SDS011;14204;51.262;5.488;2023-07-24T10:47:34;8.57;;;5.20;;
26536;SDS011;14204;51.262;5.488;2023-07-24T10:49:59;7.13;;;5.55;;
26536;SDS011;14204;51.262;5.488;2023-07-24T10:52:28;5.97;;;5.45;;
26536;SDS011;14204;51.262;5.488;2023-07-24T10:55:00;6.65;;;5.70;;
26536;SDS011;14204;51.262;5.488;2023-07-24T10:57:27;11.15;;;6.15;;
26536;SDS011;14204;51.262;5.488;2023-07-24T10:59:56;7.32;;;5.60;;
26536;SDS011;14204;51.262;5.488;2023-07-24T11:02:22;5.53;;;5.03;;
26536;SDS011;14204;51.262;5.488;2023-07-24T11:04:48;8.38;;;5.70;;
26536;SDS011;14204;51.262;5.488;2023-07-24T11:07:14;6.30;;;5.60;;
26536;SDS011;14204;51.262;5.488;2023-07-24T11:09:40;7.28;;;5.18;;
26536;SDS011;14204;51.262;5.488;2023-07-24T11:12:14;4.93;;;4.43;;
26536;SDS011;14204;51.262;5.488;2023-07-24T11:14:51;7.75;;;4.88;;
26536;SDS011;14204;51.262;5.488;2023-07-24T11:17:21;6.20;;;5.10;;
26536;SDS011;14204;51.262;5.488;2023-07-24T11:19:47;4.68;;;4.28;;
26536;SDS011;14204;51.262;5.488;2023-07-24T11:22:13;5.80;;;4.40;;
26536;SDS011;14204;51.262;5.488;2023-07-24T11:24:43;4.40;;;4.00;;
26536;SDS011;14204;51.262;5.488;2023-07-24T11:27:14;7.55;;;4.28;;
26536;SDS011;14204;51.262;5.488;2023-07-24T11:29:50;4.80;;;4.30;;
26536;SDS011;14204;51.262;5.488;2023-07-24T11:32:19;4.30;;;4.00;;
26536;SDS011;14204;51.262;5.488;2023-07-24T11:34:46;4.97;;;4.03;;
26536;SDS011;14204;51.262;5.488;2023-07-24T11:37:13;4.05;;;3.75;;
26536;SDS011;14204;51.262;5.488;2023-07-24T11:39:39;4.70;;;4.30;;
26536;SDS011;14204;51.262;5.488;2023-07-24T11:42:05;5.03;;;4.53;;
26536;SDS011;14204;51.262;5.488;2023-07-24T11:44:31;5.13;;;4.72;;
26536;SDS011;14204;51.262;5.488;2023-07-24T11:47:01;4.97;;;4.55;;
26536;SDS011;14204;51.262;5.488;2023-07-24T11:49:31;5.40;;;4.90;;
26536;SDS011;14204;51.262;5.488;2023-07-24T11:52:01;6.60;;;5.80;;
26536;SDS011;14204;51.262;5.488;2023-07-24T11:54:33;5.90;;;4.55;;
26536;SDS011;14204;51.262;5.488;2023-07-24T11:57:00;5.28;;;4.88;;
26536;SDS011;14204;51.262;5.488;2023-07-24T11:59:26;4.32;;;4.03;;
26536;SDS011;14204;51.262;5.488;2023-07-24T12:01:52;5.00;;;4.55;;
26536;SDS011;14204;51.262;5.488;2023-07-24T12:04:18;5.55;;;4.63;;
26536;SDS011;14204;51.262;5.488;2023-07-24T12:06:45;4.30;;;3.90;;
26536;SDS011;14204;51.262;5.488;2023-07-24T12:09:11;5.07;;;4.10;;
26536;SDS011;14204;51.262;5.488;2023-07-24T12:11:44;5.53;;;4.05;;
26536;SDS011;14204;51.262;5.488;2023-07-24T12:14:09;4.22;;;3.92;;
26536;SDS011;14204;51.262;5.488;2023-07-24T12:16:35;4.18;;;3.88;;
26536;SDS011;14204;51.262;5.488;2023-07-24T12:19:02;4.72;;;4.18;;
26536;SDS011;14204;51.262;5.488;2023-07-24T12:21:27;4.43;;;4.03;;
26536;SDS011;14204;51.262;5.488;2023-07-24T12:23:53;4.45;;;4.03;;
26536;SDS011;14204;51.262;5.488;2023-07-24T12:26:19;6.50;;;3.80;;
26536;SDS011;14204;51.262;5.488;2023-07-24T12:28:45;3.75;;;3.38;;
26536;SDS011;14204;51.262;5.488;2023-07-24T12:31:11;4.60;;;3.80;;
26536;SDS011;14204;51.262;5.488;2023-07-24T12:33:36;5.60;;;4.00;;
26536;SDS011;14204;51.262;5.488;2023-07-24T12:36:02;4.30;;;4.00;;
26536;SDS011;14204;51.262;5.488;2023-07-24T12:38:28;4.90;;;3.40;;
26536;SDS011;14204;51.262;5.488;2023-07-24T12:40:54;4.20;;;3.80;;
26536;SDS011;14204;51.262;5.488;2023-07-24T12:43:20;5.90;;;4.03;;
26536;SDS011;14204;51.262;5.488;2023-07-24T12:45:45;4.50;;;4.10;;
26536;SDS011;14204;51.262;5.488;2023-07-24T12:48:11;7.95;;;3.75;;
26536;SDS011;14204;51.262;5.488;2023-07-24T12:50:37;4.55;;;3.90;;
26536;SDS011;14204;51.262;5.488;2023-07-24T12:53:02;4.15;;;3.80;;
26536;SDS011;14204;51.262;5.488;2023-07-24T12:55:28;4.47;;;4.07;;
26536;SDS011;14204;51.262;5.488;2023-07-24T12:57:54;5.55;;;4.32;;
26536;SDS011;14204;51.262;5.488;2023-07-24T13:00:21;4.30;;;3.90;;
26536;SDS011;14204;51.262;5.488;2023-07-24T13:02:48;6.45;;;4.97;;
26536;SDS011;14204;51.262;5.488;2023-07-24T13:05:14;5.57;;;5.07;;
26536;SDS011;14204;51.262;5.488;2023-07-24T13:07:40;6.15;;;5.60;;
26536;SDS011;14204;51.262;5.488;2023-07-24T13:10:06;6.53;;;5.90;;
26536;SDS011;14204;51.262;5.488;2023-07-24T13:12:32;7.10;;;6.35;;
26536;SDS011;14204;51.262;5.488;2023-07-24T13:14:57;6.35;;;5.70;;
26536;SDS011;14204;51.262;5.488;2023-07-24T13:17:23;6.57;;;5.97;;
26536;SDS011;14204;51.262;5.488;2023-07-24T13:19:49;5.55;;;5.05;;
26536;SDS011;14204;51.262;5.488;2023-07-24T13:22:14;5.63;;;4.53;;
26536;SDS011;14204;51.262;5.488;2023-07-24T13:24:40;6.03;;;4.45;;
26536;SDS011;14204;51.262;5.488;2023-07-24T13:27:06;5.00;;;4.50;;
26536;SDS011;14204;51.262;5.488;2023-07-24T13:29:31;7.28;;;4.95;;
26536;SDS011;14204;51.262;5.488;2023-07-24T13:31:57;7.30;;;4.75;;
26536;SDS011;14204;51.262;5.488;2023-07-24T13:34:23;7.72;;;5.32;;
26536;SDS011;14204;51.262;5.488;2023-07-24T13:36:49;5.38;;;4.88;;
26536;SDS011;14204;51.262;5.488;2023-07-24T13:39:16;4.57;;;4.18;;
26536;SDS011;14204;51.262;5.488;2023-07-24T13:41:42;5.97;;;5.38;;
26536;SDS011;14204;51.262;5.488;2023-07-24T13:44:08;5.32;;;4.85;;
26536;SDS011;14204;51.262;5.488;2023-07-24T13:46:34;5.10;;;4.63;;
26536;SDS011;14204;51.262;5.488;2023-07-24T13:49:00;5.55;;;4.90;;
26536;SDS011;14204;51.262;5.488;2023-07-24T13:51:25;7.50;;;4.63;;
26536;SDS011;14204;51.262;5.488;2023-07-24T13:53:51;5.63;;;4.85;;
26536;SDS011;14204;51.262;5.488;2023-07-24T13:56:18;5.18;;;4.78;;
26536;SDS011;14204;51.262;5.488;2023-07-24T13:58:44;7.72;;;4.95;;
26536;SDS011;14204;51.262;5.488;2023-07-24T14:01:10;7.47;;;5.00;;
26536;SDS011;14204;51.262;5.488;2023-07-24T14:03:36;6.90;;;5.07;;
26536;SDS011;14204;51.262;5.488;2023-07-24T14:06:02;6.65;;;4.95;;
26536;SDS011;14204;51.262;5.488;2023-07-24T14:08:27;6.45;;;4.60;;
26536;SDS011;14204;51.262;5.488;2023-07-24T14:10:53;6.30;;;4.30;;
26536;SDS011;14204;51.262;5.488;2023-07-24T14:13:19;6.15;;;4.65;;
26536;SDS011;14204;51.262;5.488;2023-07-24T14:15:45;5.25;;;4.75;;
26536;SDS011;14204;51.262;5.488;2023-07-24T14:18:10;5.32;;;4.90;;
26536;SDS011;14204;51.262;5.488;2023-07-24T14:20:36;5.45;;;5.03;;
26536;SDS011;14204;51.262;5.488;2023-07-24T14:23:05;7.13;;;3.45;;
26536;SDS011;14204;51.262;5.488;2023-07-24T14:25:32;2.70;;;1.67;;
26536;SDS011;14204;51.262;5.488;2023-07-24T14:27:58;1.52;;;1.13;;
26536;SDS011;14204;51.262;5.488;2023-07-24T14:30:24;0.70;;;0.70;;
26536;SDS011;14204;51.262;5.488;2023-07-24T14:32:50;0.80;;;0.77;;
26536;SDS011;14204;51.262;5.488;2023-07-24T14:35:15;1.20;;;1.02;;
26536;SDS011;14204;51.262;5.488;2023-07-24T14:37:41;9.82;;;1.00;;
26536;SDS011;14204;51.262;5.488;2023-07-24T14:40:09;1.52;;;1.10;;
26536;SDS011;14204;51.262;5.488;2023-07-24T14:42:35;2.97;;;1.50;;
26536;SDS011;14204;51.262;5.488;2023-07-24T14:45:01;8.73;;;1.98;;
26536;SDS011;14204;51.262;5.488;2023-07-24T14:47:27;6.97;;;3.13;;
26536;SDS011;14204;51.262;5.488;2023-07-24T14:49:54;8.13;;;2.75;;
26536;SDS011;14204;51.262;5.488;2023-07-24T14:52:19;9.38;;;2.78;;
26536;SDS011;14204;51.262;5.488;2023-07-24T14:54:45;7.50;;;2.80;;